sensor_id;sensor_type;location;lat;lon;timestamp;temperature;humidity
37806;DHT22;25082;50.870;0.022;2023-02-15T00:01:38;18.60;55.90
37806;DHT22;25082;50.870;0.022;2023-02-15T00:04:04;18.50;55.80
37806;DHT22;25082;50.870;0.022;2023-02-15T00:06:31;18.50;55.80
37806;DHT22;25082;50.870;0.022;2023-02-15T00:08:57;18.50;55.70
37806;DHT22;25082;50.870;0.022;2023-02-15T00:11:22;18.50;55.50
37806;DHT22;25082;50.870;0.022;2023-02-15T00:14:13;18.50;55.40
37806;DHT22;25082;50.870;0.022;2023-02-15T00:16:41;18.50;55.50
37806;DHT22;25082;50.870;0.022;2023-02-15T00:19:07;18.90;55.70
37806;DHT22;25082;50.870;0.022;2023-02-15T00:21:34;18.40;55.40
37806;DHT22;25082;50.870;0.022;2023-02-15T00:24:02;18.40;55.30
37806;DHT22;25082;50.870;0.022;2023-02-15T00:26:28;18.40;55.40
37806;DHT22;25082;50.870;0.022;2023-02-15T00:28:55;18.40;55.50
37806;DHT22;25082;50.870;0.022;2023-02-15T00:31:21;18.40;55.50
37806;DHT22;25082;50.870;0.022;2023-02-15T00:33:47;18.40;55.50
37806;DHT22;25082;50.870;0.022;2023-02-15T00:36:13;18.40;55.50
37806;DHT22;25082;50.870;0.022;2023-02-15T00:38:39;18.40;55.40
37806;DHT22;25082;50.870;0.022;2023-02-15T00:41:06;18.40;55.40
37806;DHT22;25082;50.870;0.022;2023-02-15T00:43:33;18.30;55.40
37806;DHT22;25082;50.870;0.022;2023-02-15T00:45:59;18.30;54.90
37806;DHT22;25082;50.870;0.022;2023-02-15T00:48:25;18.30;54.70
37806;DHT22;25082;50.870;0.022;2023-02-15T00:50:53;18.30;54.50
37806;DHT22;25082;50.870;0.022;2023-02-15T00:53:20;18.20;54.40
37806;DHT22;25082;50.870;0.022;2023-02-15T00:55:46;18.30;54.30
37806;DHT22;25082;50.870;0.022;2023-02-15T00:58:13;18.30;54.30
37806;DHT22;25082;50.870;0.022;2023-02-15T01:00:40;18.20;54.20
37806;DHT22;25082;50.870;0.022;2023-02-15T01:03:06;18.20;54.10
37806;DHT22;25082;50.870;0.022;2023-02-15T01:05:32;18.20;54.10
37806;DHT22;25082;50.870;0.022;2023-02-15T01:07:58;18.20;54.00
37806;DHT22;25082;50.870;0.022;2023-02-15T01:10:25;18.10;54.10
37806;DHT22;25082;50.870;0.022;2023-02-15T01:12:52;18.10;54.10
37806;DHT22;25082;50.870;0.022;2023-02-15T01:15:19;18.10;54.10
37806;DHT22;25082;50.870;0.022;2023-02-15T01:17:45;18.10;54.10
37806;DHT22;25082;50.870;0.022;2023-02-15T01:20:17;18.10;54.10
37806;DHT22;25082;50.870;0.022;2023-02-15T01:22:43;18.10;54.00
37806;DHT22;25082;50.870;0.022;2023-02-15T01:25:09;18.50;54.20
37806;DHT22;25082;50.870;0.022;2023-02-15T01:27:34;18.00;54.00
37806;DHT22;25082;50.870;0.022;2023-02-15T01:30:00;18.00;54.00
37806;DHT22;25082;50.870;0.022;2023-02-15T01:32:26;18.00;54.00
37806;DHT22;25082;50.870;0.022;2023-02-15T01:34:52;18.00;54.10
37806;DHT22;25082;50.870;0.022;2023-02-15T01:37:18;18.00;53.90
37806;DHT22;25082;50.870;0.022;2023-02-15T01:39:44;18.00;54.10
37806;DHT22;25082;50.870;0.022;2023-02-15T01:42:13;17.90;53.90
37806;DHT22;25082;50.870;0.022;2023-02-15T01:44:56;17.90;53.90
37806;DHT22;25082;50.870;0.022;2023-02-15T01:55:21;17.90;53.90
37806;DHT22;25082;50.870;0.022;2023-02-15T01:57:48;17.80;53.80
37806;DHT22;25082;50.870;0.022;2023-02-15T02:00:14;17.80;54.00
37806;DHT22;25082;50.870;0.022;2023-02-15T02:02:43;17.80;53.90
37806;DHT22;25082;50.870;0.022;2023-02-15T02:05:10;17.80;53.80
37806;DHT22;25082;50.870;0.022;2023-02-15T02:07:42;17.80;53.90
37806;DHT22;25082;50.870;0.022;2023-02-15T02:10:12;17.70;53.80
37806;DHT22;25082;50.870;0.022;2023-02-15T02:12:40;17.80;53.90
37806;DHT22;25082;50.870;0.022;2023-02-15T02:15:07;17.70;53.80
37806;DHT22;25082;50.870;0.022;2023-02-15T02:34:38;17.60;53.60
37806;DHT22;25082;50.870;0.022;2023-02-15T02:37:19;17.60;53.60
37806;DHT22;25082;50.870;0.022;2023-02-15T02:42:42;17.60;53.60
37806;DHT22;25082;50.870;0.022;2023-02-15T02:45:39;17.60;53.70
37806;DHT22;25082;50.870;0.022;2023-02-15T02:48:19;17.60;53.60
37806;DHT22;25082;50.870;0.022;2023-02-15T02:50:46;17.50;53.50
37806;DHT22;25082;50.870;0.022;2023-02-15T02:53:12;17.50;53.50
37806;DHT22;25082;50.870;0.022;2023-02-15T02:58:37;17.50;53.50
37806;DHT22;25082;50.870;0.022;2023-02-15T03:01:19;17.50;53.50
37806;DHT22;25082;50.870;0.022;2023-02-15T03:03:57;17.30;53.40
37806;DHT22;25082;50.870;0.022;2023-02-15T03:06:38;17.40;53.50
37806;DHT22;25082;50.870;0.022;2023-02-15T03:11:50;17.40;53.50
37806;DHT22;25082;50.870;0.022;2023-02-15T03:14:17;17.40;53.50
37806;DHT22;25082;50.870;0.022;2023-02-15T03:16:47;17.40;53.40
37806;DHT22;25082;50.870;0.022;2023-02-15T03:19:28;17.40;53.40
37806;DHT22;25082;50.870;0.022;2023-02-15T03:22:03;17.40;53.50
37806;DHT22;25082;50.870;0.022;2023-02-15T03:24:45;17.40;53.50
37806;DHT22;25082;50.870;0.022;2023-02-15T03:27:17;17.30;53.50
37806;DHT22;25082;50.870;0.022;2023-02-15T03:29:47;17.30;53.40
37806;DHT22;25082;50.870;0.022;2023-02-15T03:32:15;17.30;53.40
37806;DHT22;25082;50.870;0.022;2023-02-15T03:34:41;17.30;53.40
37806;DHT22;25082;50.870;0.022;2023-02-15T03:37:16;17.30;53.40
37806;DHT22;25082;50.870;0.022;2023-02-15T03:39:47;17.20;53.40
37806;DHT22;25082;50.870;0.022;2023-02-15T03:42:31;17.20;53.40
37806;DHT22;25082;50.870;0.022;2023-02-15T03:45:02;17.30;53.50
37806;DHT22;25082;50.870;0.022;2023-02-15T03:47:39;17.20;53.30
37806;DHT22;25082;50.870;0.022;2023-02-15T03:50:14;17.20;53.40
37806;DHT22;25082;50.870;0.022;2023-02-15T03:52:59;17.20;53.40
37806;DHT22;25082;50.870;0.022;2023-02-15T03:55:27;17.20;53.40
37806;DHT22;25082;50.870;0.022;2023-02-15T03:57:53;17.20;53.40
37806;DHT22;25082;50.870;0.022;2023-02-15T04:00:44;17.20;53.40
37806;DHT22;25082;50.870;0.022;2023-02-15T04:03:45;17.20;53.40
37806;DHT22;25082;50.870;0.022;2023-02-15T04:06:14;17.20;53.30
37806;DHT22;25082;50.870;0.022;2023-02-15T04:08:40;17.10;53.30
37806;DHT22;25082;50.870;0.022;2023-02-15T04:11:25;17.10;53.30
37806;DHT22;25082;50.870;0.022;2023-02-15T04:13:50;17.10;53.40
37806;DHT22;25082;50.870;0.022;2023-02-15T04:16:22;17.10;53.30
37806;DHT22;25082;50.870;0.022;2023-02-15T04:18:48;17.10;53.30
37806;DHT22;25082;50.870;0.022;2023-02-15T04:21:33;17.10;53.30
37806;DHT22;25082;50.870;0.022;2023-02-15T04:24:17;17.10;53.30
37806;DHT22;25082;50.870;0.022;2023-02-15T04:27:03;17.10;53.30
37806;DHT22;25082;50.870;0.022;2023-02-15T04:29:30;17.00;53.30
37806;DHT22;25082;50.870;0.022;2023-02-15T04:31:58;17.00;53.20
37806;DHT22;25082;50.870;0.022;2023-02-15T04:34:24;17.00;53.20
37806;DHT22;25082;50.870;0.022;2023-02-15T04:36:50;17.00;53.30
37806;DHT22;25082;50.870;0.022;2023-02-15T04:39:17;17.00;53.30
37806;DHT22;25082;50.870;0.022;2023-02-15T04:41:43;17.00;53.20
37806;DHT22;25082;50.870;0.022;2023-02-15T04:44:09;17.00;53.30
37806;DHT22;25082;50.870;0.022;2023-02-15T04:46:35;16.90;53.20
37806;DHT22;25082;50.870;0.022;2023-02-15T04:49:01;16.90;53.20
37806;DHT22;25082;50.870;0.022;2023-02-15T04:51:28;16.90;53.20
37806;DHT22;25082;50.870;0.022;2023-02-15T04:53:54;16.90;53.20
37806;DHT22;25082;50.870;0.022;2023-02-15T04:56:20;16.90;53.80
37806;DHT22;25082;50.870;0.022;2023-02-15T04:58:46;16.90;53.30
37806;DHT22;25082;50.870;0.022;2023-02-15T05:01:12;16.90;53.30
37806;DHT22;25082;50.870;0.022;2023-02-15T05:03:38;16.90;53.20
37806;DHT22;25082;50.870;0.022;2023-02-15T05:06:04;16.80;53.20
37806;DHT22;25082;50.870;0.022;2023-02-15T05:08:31;16.90;53.30
37806;DHT22;25082;50.870;0.022;2023-02-15T05:10:57;16.80;53.20
37806;DHT22;25082;50.870;0.022;2023-02-15T05:13:23;16.80;53.30
37806;DHT22;25082;50.870;0.022;2023-02-15T05:15:50;16.80;53.30
37806;DHT22;25082;50.870;0.022;2023-02-15T05:18:17;16.80;53.30
37806;DHT22;25082;50.870;0.022;2023-02-15T05:20:43;16.80;53.30
37806;DHT22;25082;50.870;0.022;2023-02-15T05:23:09;16.80;53.30
37806;DHT22;25082;50.870;0.022;2023-02-15T05:25:35;16.80;53.30
37806;DHT22;25082;50.870;0.022;2023-02-15T05:28:19;16.70;53.30
37806;DHT22;25082;50.870;0.022;2023-02-15T05:31:15;16.80;53.30
37806;DHT22;25082;50.870;0.022;2023-02-15T05:33:43;16.70;53.20
37806;DHT22;25082;50.870;0.022;2023-02-15T05:36:09;16.70;53.20
37806;DHT22;25082;50.870;0.022;2023-02-15T05:38:35;16.70;53.30
37806;DHT22;25082;50.870;0.022;2023-02-15T05:41:05;16.70;53.20
37806;DHT22;25082;50.870;0.022;2023-02-15T05:43:32;16.70;53.20
37806;DHT22;25082;50.870;0.022;2023-02-15T05:45:58;16.70;53.30
37806;DHT22;25082;50.870;0.022;2023-02-15T05:48:26;16.60;53.20
37806;DHT22;25082;50.870;0.022;2023-02-15T05:51:00;16.60;53.10
37806;DHT22;25082;50.870;0.022;2023-02-15T05:53:27;16.60;53.20
37806;DHT22;25082;50.870;0.022;2023-02-15T05:55:53;16.60;53.20
37806;DHT22;25082;50.870;0.022;2023-02-15T05:58:22;16.60;53.10
37806;DHT22;25082;50.870;0.022;2023-02-15T06:00:48;16.60;53.30
37806;DHT22;25082;50.870;0.022;2023-02-15T06:03:14;16.60;53.10
37806;DHT22;25082;50.870;0.022;2023-02-15T06:05:39;16.60;53.20
37806;DHT22;25082;50.870;0.022;2023-02-15T06:08:05;16.50;53.20
37806;DHT22;25082;50.870;0.022;2023-02-15T06:10:31;16.60;53.10
37806;DHT22;25082;50.870;0.022;2023-02-15T06:12:56;16.60;53.20
37806;DHT22;25082;50.870;0.022;2023-02-15T06:15:22;16.50;53.00
37806;DHT22;25082;50.870;0.022;2023-02-15T06:17:48;16.50;53.10
37806;DHT22;25082;50.870;0.022;2023-02-15T06:20:13;16.50;53.10
37806;DHT22;25082;50.870;0.022;2023-02-15T06:22:39;16.50;53.70
37806;DHT22;25082;50.870;0.022;2023-02-15T06:25:05;16.50;53.20
37806;DHT22;25082;50.870;0.022;2023-02-15T06:27:31;16.50;53.10
37806;DHT22;25082;50.870;0.022;2023-02-15T06:29:56;16.50;53.10
37806;DHT22;25082;50.870;0.022;2023-02-15T06:32:22;16.50;53.10
37806;DHT22;25082;50.870;0.022;2023-02-15T06:34:48;16.50;53.10
37806;DHT22;25082;50.870;0.022;2023-02-15T06:37:13;16.50;53.10
37806;DHT22;25082;50.870;0.022;2023-02-15T06:39:39;16.40;53.10
37806;DHT22;25082;50.870;0.022;2023-02-15T06:42:05;16.40;53.00
37806;DHT22;25082;50.870;0.022;2023-02-15T06:44:31;16.40;53.10
37806;DHT22;25082;50.870;0.022;2023-02-15T06:46:56;16.40;53.00
37806;DHT22;25082;50.870;0.022;2023-02-15T06:49:22;16.40;53.00
37806;DHT22;25082;50.870;0.022;2023-02-15T06:51:48;16.40;53.10
37806;DHT22;25082;50.870;0.022;2023-02-15T06:54:13;16.40;53.10
37806;DHT22;25082;50.870;0.022;2023-02-15T06:56:39;16.40;53.00
37806;DHT22;25082;50.870;0.022;2023-02-15T06:59:05;16.40;53.10
37806;DHT22;25082;50.870;0.022;2023-02-15T07:01:30;16.40;53.00
37806;DHT22;25082;50.870;0.022;2023-02-15T07:03:56;16.40;53.00
37806;DHT22;25082;50.870;0.022;2023-02-15T07:06:22;16.30;53.00
37806;DHT22;25082;50.870;0.022;2023-02-15T07:08:48;16.40;53.10
37806;DHT22;25082;50.870;0.022;2023-02-15T07:11:13;16.30;53.00
37806;DHT22;25082;50.870;0.022;2023-02-15T07:13:57;16.30;53.00
37806;DHT22;25082;50.870;0.022;2023-02-15T07:16:23;16.30;53.00
37806;DHT22;25082;50.870;0.022;2023-02-15T07:18:49;16.30;53.00
37806;DHT22;25082;50.870;0.022;2023-02-15T07:21:14;16.30;52.90
37806;DHT22;25082;50.870;0.022;2023-02-15T07:23:40;16.20;53.00
37806;DHT22;25082;50.870;0.022;2023-02-15T07:26:07;16.20;52.90
37806;DHT22;25082;50.870;0.022;2023-02-15T07:28:33;16.30;53.00
37806;DHT22;25082;50.870;0.022;2023-02-15T07:31:02;16.30;53.10
37806;DHT22;25082;50.870;0.022;2023-02-15T07:33:30;16.30;53.00
37806;DHT22;25082;50.870;0.022;2023-02-15T07:35:58;16.30;53.10
37806;DHT22;25082;50.870;0.022;2023-02-15T07:38:25;16.20;53.00
37806;DHT22;25082;50.870;0.022;2023-02-15T07:40:57;16.20;53.10
37806;DHT22;25082;50.870;0.022;2023-02-15T07:43:22;16.20;53.10
37806;DHT22;25082;50.870;0.022;2023-02-15T07:45:48;16.20;53.00
37806;DHT22;25082;50.870;0.022;2023-02-15T07:48:14;16.20;53.00
37806;DHT22;25082;50.870;0.022;2023-02-15T07:50:39;16.20;53.00
37806;DHT22;25082;50.870;0.022;2023-02-15T07:53:05;16.20;53.00
37806;DHT22;25082;50.870;0.022;2023-02-15T07:55:31;16.20;53.00
37806;DHT22;25082;50.870;0.022;2023-02-15T07:57:57;16.20;53.00
37806;DHT22;25082;50.870;0.022;2023-02-15T08:00:23;16.10;52.90
37806;DHT22;25082;50.870;0.022;2023-02-15T08:02:56;16.10;53.00
37806;DHT22;25082;50.870;0.022;2023-02-15T08:05:42;16.10;52.90
37806;DHT22;25082;50.870;0.022;2023-02-15T08:08:09;16.10;52.90
37806;DHT22;25082;50.870;0.022;2023-02-15T08:10:58;16.10;53.00
37806;DHT22;25082;50.870;0.022;2023-02-15T08:13:44;16.10;53.00
37806;DHT22;25082;50.870;0.022;2023-02-15T08:18:51;16.10;53.00
37806;DHT22;25082;50.870;0.022;2023-02-15T08:21:18;16.10;53.00
37806;DHT22;25082;50.870;0.022;2023-02-15T08:23:44;16.10;53.10
37806;DHT22;25082;50.870;0.022;2023-02-15T08:26:10;16.10;53.00
37806;DHT22;25082;50.870;0.022;2023-02-15T08:28:36;16.10;53.10
37806;DHT22;25082;50.870;0.022;2023-02-15T08:31:09;16.10;53.10
37806;DHT22;25082;50.870;0.022;2023-02-15T08:33:37;16.10;53.00
37806;DHT22;25082;50.870;0.022;2023-02-15T08:36:05;16.10;53.10
37806;DHT22;25082;50.870;0.022;2023-02-15T08:38:31;16.10;53.10
37806;DHT22;25082;50.870;0.022;2023-02-15T08:40:58;16.10;53.10
37806;DHT22;25082;50.870;0.022;2023-02-15T08:43:23;16.10;53.20
37806;DHT22;25082;50.870;0.022;2023-02-15T08:45:49;16.10;53.30
37806;DHT22;25082;50.870;0.022;2023-02-15T08:48:15;16.20;53.30
37806;DHT22;25082;50.870;0.022;2023-02-15T08:50:40;16.20;53.30
37806;DHT22;25082;50.870;0.022;2023-02-15T08:53:06;16.20;53.30
37806;DHT22;25082;50.870;0.022;2023-02-15T08:55:32;16.30;53.40
37806;DHT22;25082;50.870;0.022;2023-02-15T08:57:58;16.20;53.40
37806;DHT22;25082;50.870;0.022;2023-02-15T09:00:23;16.30;53.60
37806;DHT22;25082;50.870;0.022;2023-02-15T09:02:50;16.30;53.60
37806;DHT22;25082;50.870;0.022;2023-02-15T09:05:16;16.40;53.70
37806;DHT22;25082;50.870;0.022;2023-02-15T09:07:42;16.40;53.70
37806;DHT22;25082;50.870;0.022;2023-02-15T09:10:08;16.40;53.70
37806;DHT22;25082;50.870;0.022;2023-02-15T09:12:34;16.50;53.80
37806;DHT22;25082;50.870;0.022;2023-02-15T09:15:00;16.50;53.90
37806;DHT22;25082;50.870;0.022;2023-02-15T09:17:25;16.50;54.00
37806;DHT22;25082;50.870;0.022;2023-02-15T09:19:51;16.50;54.00
37806;DHT22;25082;50.870;0.022;2023-02-15T09:22:17;16.60;54.10
37806;DHT22;25082;50.870;0.022;2023-02-15T09:24:43;16.60;54.20
37806;DHT22;25082;50.870;0.022;2023-02-15T09:27:08;16.60;54.70
37806;DHT22;25082;50.870;0.022;2023-02-15T09:29:34;16.70;55.20
37806;DHT22;25082;50.870;0.022;2023-02-15T09:32:00;16.70;56.10
37806;DHT22;25082;50.870;0.022;2023-02-15T09:34:25;16.70;56.10
37806;DHT22;25082;50.870;0.022;2023-02-15T09:36:51;16.80;56.50
37806;DHT22;25082;50.870;0.022;2023-02-15T09:39:18;16.80;56.70
37806;DHT22;25082;50.870;0.022;2023-02-15T09:42:10;16.80;56.90
37806;DHT22;25082;50.870;0.022;2023-02-15T09:55:22;16.90;57.40
37806;DHT22;25082;50.870;0.022;2023-02-15T10:00:47;17.00;57.50
37806;DHT22;25082;50.870;0.022;2023-02-15T10:14:33;17.10;57.80
37806;DHT22;25082;50.870;0.022;2023-02-15T10:20:02;17.20;57.90
37806;DHT22;25082;50.870;0.022;2023-02-15T10:27:47;17.20;58.10
37806;DHT22;25082;50.870;0.022;2023-02-15T10:30:15;17.20;58.30
37806;DHT22;25082;50.870;0.022;2023-02-15T10:33:04;17.20;58.40
37806;DHT22;25082;50.870;0.022;2023-02-15T10:41:30;17.40;58.40
37806;DHT22;25082;50.870;0.022;2023-02-15T10:48:02;17.40;58.30
37806;DHT22;25082;50.870;0.022;2023-02-15T10:51:03;17.40;58.40
37806;DHT22;25082;50.870;0.022;2023-02-15T11:07:02;17.60;58.50
37806;DHT22;25082;50.870;0.022;2023-02-15T11:09:44;17.60;58.40
37806;DHT22;25082;50.870;0.022;2023-02-15T11:12:15;17.60;58.40
37806;DHT22;25082;50.870;0.022;2023-02-15T11:15:17;17.60;58.50
37806;DHT22;25082;50.870;0.022;2023-02-15T11:17:51;17.60;58.40
37806;DHT22;25082;50.870;0.022;2023-02-15T11:22:49;17.70;58.50
37806;DHT22;25082;50.870;0.022;2023-02-15T11:25:23;17.70;58.50
37806;DHT22;25082;50.870;0.022;2023-02-15T11:27:50;17.70;58.50
37806;DHT22;25082;50.870;0.022;2023-02-15T11:30:22;17.70;58.50
37806;DHT22;25082;50.870;0.022;2023-02-15T11:32:59;17.70;58.50
37806;DHT22;25082;50.870;0.022;2023-02-15T11:35:35;17.80;58.60
37806;DHT22;25082;50.870;0.022;2023-02-15T11:38:12;17.80;58.60
37806;DHT22;25082;50.870;0.022;2023-02-15T11:40:48;17.80;58.60
37806;DHT22;25082;50.870;0.022;2023-02-15T11:43:41;17.80;58.60
37806;DHT22;25082;50.870;0.022;2023-02-15T11:46:10;17.90;58.80
37806;DHT22;25082;50.870;0.022;2023-02-15T11:48:36;17.90;59.00
37806;DHT22;25082;50.870;0.022;2023-02-15T11:51:03;17.90;59.50
37806;DHT22;25082;50.870;0.022;2023-02-15T11:53:33;17.90;60.10
37806;DHT22;25082;50.870;0.022;2023-02-15T11:55:59;18.00;60.40
37806;DHT22;25082;50.870;0.022;2023-02-15T11:58:49;18.00;60.30
37806;DHT22;25082;50.870;0.022;2023-02-15T12:01:30;18.00;60.40
37806;DHT22;25082;50.870;0.022;2023-02-15T12:06:48;18.00;60.60
37806;DHT22;25082;50.870;0.022;2023-02-15T12:09:59;18.00;60.80
37806;DHT22;25082;50.870;0.022;2023-02-15T12:12:32;18.10;61.10
37806;DHT22;25082;50.870;0.022;2023-02-15T12:15:06;18.10;60.80
37806;DHT22;25082;50.870;0.022;2023-02-15T12:20:33;18.20;60.50
37806;DHT22;25082;50.870;0.022;2023-02-15T12:23:12;18.00;60.10
37806;DHT22;25082;50.870;0.022;2023-02-15T12:25:42;18.20;60.10
37806;DHT22;25082;50.870;0.022;2023-02-15T12:28:25;18.30;60.00
37806;DHT22;25082;50.870;0.022;2023-02-15T12:30:54;18.30;60.50
37806;DHT22;25082;50.870;0.022;2023-02-15T12:36:20;18.30;59.90
37806;DHT22;25082;50.870;0.022;2023-02-15T12:42:01;18.30;59.70
37806;DHT22;25082;50.870;0.022;2023-02-15T12:44:30;18.30;59.60
37806;DHT22;25082;50.870;0.022;2023-02-15T12:46:58;18.40;59.60
37806;DHT22;25082;50.870;0.022;2023-02-15T12:49:25;18.40;59.60
37806;DHT22;25082;50.870;0.022;2023-02-15T12:51:54;18.40;59.40
37806;DHT22;25082;50.870;0.022;2023-02-15T12:54:31;18.30;58.30
37806;DHT22;25082;50.870;0.022;2023-02-15T12:56:58;18.30;58.10
37806;DHT22;25082;50.870;0.022;2023-02-15T12:59:24;18.30;58.00
37806;DHT22;25082;50.870;0.022;2023-02-15T13:01:52;18.30;58.10
37806;DHT22;25082;50.870;0.022;2023-02-15T13:04:25;18.30;58.00
37806;DHT22;25082;50.870;0.022;2023-02-15T13:06:54;18.40;58.10
37806;DHT22;25082;50.870;0.022;2023-02-15T13:09:37;18.40;58.10
37806;DHT22;25082;50.870;0.022;2023-02-15T13:12:24;18.40;58.00
37806;DHT22;25082;50.870;0.022;2023-02-15T13:14:53;18.50;58.00
37806;DHT22;25082;50.870;0.022;2023-02-15T13:17:40;18.50;58.00
37806;DHT22;25082;50.870;0.022;2023-02-15T13:20:20;18.50;57.90
37806;DHT22;25082;50.870;0.022;2023-02-15T13:22:52;18.50;57.90
37806;DHT22;25082;50.870;0.022;2023-02-15T13:25:25;18.60;58.00
37806;DHT22;25082;50.870;0.022;2023-02-15T13:27:55;18.60;57.90
37806;DHT22;25082;50.870;0.022;2023-02-15T13:30:38;18.60;57.90
37806;DHT22;25082;50.870;0.022;2023-02-15T13:33:34;18.60;57.80
37806;DHT22;25082;50.870;0.022;2023-02-15T13:36:14;18.60;57.80
37806;DHT22;25082;50.870;0.022;2023-02-15T13:38:55;18.70;57.80
37806;DHT22;25082;50.870;0.022;2023-02-15T13:41:46;18.70;57.70
37806;DHT22;25082;50.870;0.022;2023-02-15T13:50:28;18.80;57.50
37806;DHT22;25082;50.870;0.022;2023-02-15T13:56:11;18.80;57.40
37806;DHT22;25082;50.870;0.022;2023-02-15T14:07:16;18.80;57.60
37806;DHT22;25082;50.870;0.022;2023-02-15T14:20:56;18.70;57.70
37806;DHT22;25082;50.870;0.022;2023-02-15T14:31:41;18.70;57.80
37806;DHT22;25082;50.870;0.022;2023-02-15T14:36:44;18.70;57.80
37806;DHT22;25082;50.870;0.022;2023-02-15T14:48:01;18.70;57.90
37806;DHT22;25082;50.870;0.022;2023-02-15T14:50:37;18.70;57.90
37806;DHT22;25082;50.870;0.022;2023-02-15T14:56:13;18.80;57.90
37806;DHT22;25082;50.870;0.022;2023-02-15T15:01:26;18.70;57.90
37806;DHT22;25082;50.870;0.022;2023-02-15T15:03:55;18.70;57.90
37806;DHT22;25082;50.870;0.022;2023-02-15T15:06:33;18.70;57.90
37806;DHT22;25082;50.870;0.022;2023-02-15T15:09:22;18.70;57.90
37806;DHT22;25082;50.870;0.022;2023-02-15T15:11:52;18.70;58.00
37806;DHT22;25082;50.870;0.022;2023-02-15T15:17:00;18.70;58.00
37806;DHT22;25082;50.870;0.022;2023-02-15T15:22:18;18.70;58.00
37806;DHT22;25082;50.870;0.022;2023-02-15T15:48:44;18.70;58.20
37806;DHT22;25082;50.870;0.022;2023-02-15T15:51:18;18.70;58.20
37806;DHT22;25082;50.870;0.022;2023-02-15T15:53:47;18.70;58.30
37806;DHT22;25082;50.870;0.022;2023-02-15T15:56:23;18.70;58.30
37806;DHT22;25082;50.870;0.022;2023-02-15T15:58:56;18.70;58.30
37806;DHT22;25082;50.870;0.022;2023-02-15T16:01:27;18.70;58.30
37806;DHT22;25082;50.870;0.022;2023-02-15T16:03:55;18.70;58.30
37806;DHT22;25082;50.870;0.022;2023-02-15T16:06:36;18.70;58.30
37806;DHT22;25082;50.870;0.022;2023-02-15T16:09:20;18.70;58.30
37806;DHT22;25082;50.870;0.022;2023-02-15T16:11:56;18.70;58.20
37806;DHT22;25082;50.870;0.022;2023-02-15T16:14:36;18.70;58.20
37806;DHT22;25082;50.870;0.022;2023-02-15T16:17:05;18.70;58.10
37806;DHT22;25082;50.870;0.022;2023-02-15T16:19:40;18.70;58.10
37806;DHT22;25082;50.870;0.022;2023-02-15T16:22:12;18.70;58.00
37806;DHT22;25082;50.870;0.022;2023-02-15T16:27:38;18.70;58.10
37806;DHT22;25082;50.870;0.022;2023-02-15T16:32:42;18.70;58.30
37806;DHT22;25082;50.870;0.022;2023-02-15T16:35:15;18.70;58.30
37806;DHT22;25082;50.870;0.022;2023-02-15T16:37:42;18.70;58.30
37806;DHT22;25082;50.870;0.022;2023-02-15T16:43:01;18.70;58.40
37806;DHT22;25082;50.870;0.022;2023-02-15T16:45:29;18.70;58.40
37806;DHT22;25082;50.870;0.022;2023-02-15T16:47:58;18.70;58.40
37806;DHT22;25082;50.870;0.022;2023-02-15T16:50:32;18.70;58.40
37806;DHT22;25082;50.870;0.022;2023-02-15T16:52:59;18.70;58.40
37806;DHT22;25082;50.870;0.022;2023-02-15T16:55:48;18.70;58.40
37806;DHT22;25082;50.870;0.022;2023-02-15T16:58:15;18.70;58.60
37806;DHT22;25082;50.870;0.022;2023-02-15T17:00:43;18.70;58.50
37806;DHT22;25082;50.870;0.022;2023-02-15T17:05:45;18.60;58.40
37806;DHT22;25082;50.870;0.022;2023-02-15T17:08:16;18.60;58.30
37806;DHT22;25082;50.870;0.022;2023-02-15T17:11:03;18.60;58.20
37806;DHT22;25082;50.870;0.022;2023-02-15T17:13:29;18.60;58.20
37806;DHT22;25082;50.870;0.022;2023-02-15T17:18:29;18.60;58.10
37806;DHT22;25082;50.870;0.022;2023-02-15T17:21:00;18.60;58.10
37806;DHT22;25082;50.870;0.022;2023-02-15T17:23:47;18.60;58.00
37806;DHT22;25082;50.870;0.022;2023-02-15T17:26:23;18.60;58.00
37806;DHT22;25082;50.870;0.022;2023-02-15T17:28:55;18.60;58.00
37806;DHT22;25082;50.870;0.022;2023-02-15T17:31:30;18.60;58.00
37806;DHT22;25082;50.870;0.022;2023-02-15T17:34:01;18.60;58.00
37806;DHT22;25082;50.870;0.022;2023-02-15T17:36:29;18.60;58.00
37806;DHT22;25082;50.870;0.022;2023-02-15T17:41:29;18.60;58.00
37806;DHT22;25082;50.870;0.022;2023-02-15T17:43:58;18.60;58.00
37806;DHT22;25082;50.870;0.022;2023-02-15T17:46:24;18.60;58.00
37806;DHT22;25082;50.870;0.022;2023-02-15T17:48:51;18.60;58.10
37806;DHT22;25082;50.870;0.022;2023-02-15T17:51:18;18.60;58.20
37806;DHT22;25082;50.870;0.022;2023-02-15T17:53:45;18.60;58.20
37806;DHT22;25082;50.870;0.022;2023-02-15T17:56:29;18.60;58.20
37806;DHT22;25082;50.870;0.022;2023-02-15T17:58:55;18.60;58.10
37806;DHT22;25082;50.870;0.022;2023-02-15T18:01:21;18.60;58.10
37806;DHT22;25082;50.870;0.022;2023-02-15T18:04:13;18.60;58.10
37806;DHT22;25082;50.870;0.022;2023-02-15T18:06:58;18.60;58.20
37806;DHT22;25082;50.870;0.022;2023-02-15T18:09:43;18.60;58.20
37806;DHT22;25082;50.870;0.022;2023-02-15T18:12:34;18.60;58.30
37806;DHT22;25082;50.870;0.022;2023-02-15T18:15:04;18.60;58.40
37806;DHT22;25082;50.870;0.022;2023-02-15T18:17:45;18.60;58.20
37806;DHT22;25082;50.870;0.022;2023-02-15T18:20:21;18.60;58.20
37806;DHT22;25082;50.870;0.022;2023-02-15T18:22:50;18.60;58.20
37806;DHT22;25082;50.870;0.022;2023-02-15T18:25:18;18.60;58.20
37806;DHT22;25082;50.870;0.022;2023-02-15T18:27:44;18.60;58.80
37806;DHT22;25082;50.870;0.022;2023-02-15T18:30:19;18.60;58.30
37806;DHT22;25082;50.870;0.022;2023-02-15T18:32:47;18.60;58.30
37806;DHT22;25082;50.870;0.022;2023-02-15T18:35:19;18.60;58.40
37806;DHT22;25082;50.870;0.022;2023-02-15T18:37:46;18.70;58.30
37806;DHT22;25082;50.870;0.022;2023-02-15T18:40:16;18.60;58.20
37806;DHT22;25082;50.870;0.022;2023-02-15T18:42:43;18.70;58.20
37806;DHT22;25082;50.870;0.022;2023-02-15T18:45:14;18.60;55.10
37806;DHT22;25082;50.870;0.022;2023-02-15T18:47:41;18.50;56.20
37806;DHT22;25082;50.870;0.022;2023-02-15T18:50:07;18.50;57.50
37806;DHT22;25082;50.870;0.022;2023-02-15T18:52:35;18.50;57.50
37806;DHT22;25082;50.870;0.022;2023-02-15T18:55:03;18.50;57.30
37806;DHT22;25082;50.870;0.022;2023-02-15T18:57:32;18.60;57.40
37806;DHT22;25082;50.870;0.022;2023-02-15T18:59:58;18.60;57.40
37806;DHT22;25082;50.870;0.022;2023-02-15T19:02:24;18.60;57.40
37806;DHT22;25082;50.870;0.022;2023-02-15T19:04:49;18.60;57.40
37806;DHT22;25082;50.870;0.022;2023-02-15T19:07:24;18.60;57.40
37806;DHT22;25082;50.870;0.022;2023-02-15T19:09:58;18.60;57.40
37806;DHT22;25082;50.870;0.022;2023-02-15T19:12:26;18.60;57.50
37806;DHT22;25082;50.870;0.022;2023-02-15T19:14:52;18.60;57.50
37806;DHT22;25082;50.870;0.022;2023-02-15T19:17:20;18.60;57.40
37806;DHT22;25082;50.870;0.022;2023-02-15T19:19:46;18.70;57.50